createdAt,value
2022-11-13T00:03:54.248Z,8.79
2022-11-13T00:08:54.328Z,8.65
2022-11-13T00:13:55.183Z,8.56
2022-11-13T00:18:54.240Z,8.50
2022-11-13T00:23:54.155Z,8.44
2022-11-13T00:28:53.962Z,8.38
2022-11-13T00:38:54.860Z,8.45
2022-11-13T00:43:53.971Z,8.38
2022-11-13T00:48:53.952Z,8.38
2022-11-13T00:53:53.903Z,8.40
2022-11-13T00:58:53.851Z,8.38
2022-11-13T01:03:53.579Z,8.36
2022-11-13T01:08:53.518Z,8.41
2022-11-13T01:13:53.457Z,8.38
2022-11-13T01:18:53.469Z,8.26
2022-11-13T01:23:53.368Z,8.07
2022-11-13T01:28:53.319Z,7.98
2022-11-13T01:33:53.413Z,7.89
2022-11-13T01:38:53.323Z,7.89
2022-11-13T01:43:53.134Z,7.80
2022-11-13T01:48:53.072Z,7.77
2022-11-13T01:53:53.035Z,7.77
2022-11-13T01:58:55.149Z,7.69
2022-11-13T02:03:53.065Z,7.61
2022-11-13T02:08:52.992Z,7.58
2022-11-13T02:13:53.031Z,7.57
2022-11-13T02:18:52.871Z,7.60
2022-11-13T02:23:52.712Z,7.69
2022-11-13T02:28:52.741Z,7.71
2022-11-13T02:33:52.581Z,7.75
2022-11-13T02:38:52.533Z,7.80
2022-11-13T02:43:52.549Z,7.80
2022-11-13T02:48:52.505Z,7.79
2022-11-13T02:53:52.413Z,7.69
2022-11-13T02:58:52.304Z,7.72
2022-11-13T03:03:59.499Z,7.79
2022-11-13T03:08:53.213Z,7.72
2022-11-13T03:13:54.247Z,7.63
2022-11-13T03:18:52.229Z,7.53
2022-11-13T03:23:52.201Z,7.46
2022-11-13T03:28:52.130Z,7.30
2022-11-13T03:33:52.098Z,7.20
2022-11-13T03:38:51.887Z,7.15
2022-11-13T03:43:51.877Z,7.13
2022-11-13T03:48:51.769Z,7.03
2022-11-13T03:53:51.740Z,6.97
2022-11-13T03:58:51.651Z,6.85
2022-11-13T04:03:51.690Z,6.73
2022-11-13T04:08:51.636Z,6.66
2022-11-13T04:13:51.479Z,6.58
2022-11-13T04:18:51.440Z,6.56
2022-11-13T04:23:51.372Z,6.51
2022-11-13T04:29:00.158Z,6.59
2022-11-13T04:33:51.267Z,6.41
2022-11-13T04:38:51.322Z,6.30
2022-11-13T04:43:51.276Z,6.31
2022-11-13T04:48:51.215Z,6.31
2022-11-13T04:53:51.154Z,6.22
2022-11-13T04:58:51.014Z,6.15
2022-11-13T05:03:50.950Z,6.12
2022-11-13T05:08:50.892Z,6.08
2022-11-13T05:13:50.899Z,6.14
2022-11-13T05:18:50.855Z,6.11
2022-11-13T05:23:50.882Z,6.04
2022-11-13T05:28:50.830Z,6.00
2022-11-13T05:33:50.767Z,6.04
2022-11-13T05:38:50.552Z,6.08
2022-11-13T05:43:55.120Z,5.99
2022-11-13T05:48:51.450Z,5.94
2022-11-13T05:53:50.523Z,5.96
2022-11-13T05:58:50.437Z,5.90
2022-11-13T06:03:50.408Z,5.86
2022-11-13T06:08:50.326Z,5.76
2022-11-13T06:13:51.199Z,5.71
2022-11-13T06:18:50.122Z,5.71
2022-11-13T06:23:50.065Z,5.64
2022-11-13T06:28:50.018Z,5.58
2022-11-13T06:33:53.398Z,5.56
2022-11-13T06:38:50.166Z,5.54
2022-11-13T06:43:49.934Z,5.48
2022-11-13T06:48:49.952Z,5.35
2022-11-13T06:53:49.899Z,5.35
2022-11-13T06:58:49.684Z,5.46
2022-11-13T07:03:49.633Z,5.46
2022-11-13T07:08:49.580Z,5.49
2022-11-13T07:13:49.526Z,5.49
2022-11-13T07:18:49.606Z,5.53
2022-11-13T07:23:49.445Z,5.54
2022-11-13T07:28:49.371Z,5.45
2022-11-13T07:33:49.323Z,5.40
2022-11-13T07:38:49.253Z,5.36
2022-11-13T07:43:49.202Z,5.40
2022-11-13T07:48:49.146Z,5.54
2022-11-13T07:53:49.202Z,5.68
2022-11-13T07:58:49.016Z,5.71
2022-11-13T08:03:49.091Z,5.72
2022-11-13T08:08:48.912Z,5.96
2022-11-13T08:13:48.951Z,6.15
2022-11-13T08:18:48.825Z,6.21
2022-11-13T08:23:48.773Z,6.11
2022-11-13T08:28:48.801Z,6.27
2022-11-13T08:33:48.714Z,6.38
2022-11-13T08:38:48.636Z,6.49
2022-11-13T08:43:48.589Z,6.56
2022-11-13T08:48:48.659Z,6.73
2022-11-13T08:53:48.468Z,6.99
2022-11-13T08:58:48.375Z,7.34
2022-11-13T09:03:48.379Z,7.68
2022-11-13T09:08:48.245Z,8.04
2022-11-13T09:13:52.942Z,8.41
2022-11-13T09:18:49.202Z,8.87
2022-11-13T09:23:48.116Z,9.40
2022-11-13T09:28:48.039Z,9.94
2022-11-13T09:33:48.131Z,10.36
2022-11-13T09:38:48.056Z,10.73
2022-11-13T09:43:47.990Z,11.15
2022-11-13T09:48:47.817Z,11.58
2022-11-13T09:53:47.851Z,12.17
2022-11-13T09:58:47.786Z,12.74
2022-11-13T10:04:01.407Z,13.17
2022-11-13T10:08:48.671Z,13.62
2022-11-13T10:13:51.990Z,13.96
2022-11-13T10:18:47.584Z,14.27
2022-11-13T10:23:47.436Z,14.61
2022-11-13T10:28:51.913Z,14.86
2022-11-13T10:33:47.340Z,15.03
2022-11-13T10:38:57.085Z,15.29
2022-11-13T10:43:48.301Z,15.46
2022-11-13T10:48:47.433Z,15.65
2022-11-13T10:53:47.113Z,15.67
2022-11-13T10:58:47.053Z,15.83
2022-11-13T11:03:49.088Z,15.92
2022-11-13T11:08:48.400Z,16.00
2022-11-13T11:13:47.657Z,16.09
2022-11-13T11:18:51.053Z,16.24
2022-11-13T11:23:48.712Z,16.31
2022-11-13T11:28:46.783Z,16.38
2022-11-13T11:33:46.643Z,16.39
2022-11-13T11:38:46.592Z,16.50
2022-11-13T11:43:55.398Z,16.63
2022-11-13T11:48:46.617Z,16.43
2022-11-13T11:53:46.523Z,16.41
2022-11-13T11:58:46.474Z,16.39
2022-11-13T12:03:46.329Z,16.34
2022-11-13T12:08:46.283Z,16.34
2022-11-13T12:13:46.196Z,16.35
2022-11-13T12:18:46.226Z,16.20
2022-11-13T12:23:46.189Z,16.07
2022-11-13T12:28:46.132Z,16.00
2022-11-13T12:33:46.023Z,16.08
2022-11-13T12:38:45.941Z,16.00
2022-11-13T12:43:45.880Z,16.00
2022-11-13T12:48:45.882Z,16.08
2022-11-13T12:53:45.807Z,16.15
2022-11-13T12:58:58.516Z,16.01
2022-11-13T13:03:46.669Z,16.05
2022-11-13T13:08:45.621Z,16.11
2022-11-13T13:13:45.579Z,16.00
2022-11-13T13:18:45.521Z,16.01
2022-11-13T13:23:45.452Z,16.05
2022-11-13T13:28:45.389Z,15.93
2022-11-13T13:33:45.306Z,15.75
2022-11-13T13:38:50.899Z,15.56
2022-11-13T13:43:46.221Z,15.60
2022-11-13T13:48:45.310Z,15.69
2022-11-13T13:53:45.110Z,15.83
2022-11-13T13:58:45.050Z,15.71
2022-11-13T14:03:44.979Z,15.54
2022-11-13T14:08:45.008Z,15.38
2022-11-13T14:13:44.952Z,15.36
2022-11-13T14:18:44.871Z,15.43
2022-11-13T14:23:44.783Z,15.19
2022-11-13T14:28:44.730Z,15.31
2022-11-13T14:33:44.669Z,15.32
2022-11-13T14:38:50.509Z,15.67
2022-11-13T14:43:45.548Z,15.64
2022-11-13T14:48:44.500Z,15.36
2022-11-13T14:53:44.438Z,15.11
2022-11-13T14:58:44.439Z,14.89
2022-11-13T15:03:45.568Z,14.72
2022-11-13T15:08:44.407Z,14.39
2022-11-13T15:13:44.314Z,14.04
2022-11-13T15:18:44.169Z,13.84
2022-11-13T15:23:44.120Z,13.59
2022-11-13T15:28:44.048Z,13.39
2022-11-13T15:33:44.074Z,13.63
2022-11-13T15:38:44.084Z,13.73
2022-11-13T15:43:43.890Z,13.62
2022-11-13T15:48:43.847Z,13.30
2022-11-13T15:53:43.775Z,13.01
2022-11-13T15:58:43.784Z,12.78
2022-11-13T16:03:44.775Z,12.52
2022-11-13T16:08:43.675Z,12.32
2022-11-13T16:13:43.567Z,12.10
2022-11-13T16:18:43.502Z,11.95
2022-11-13T16:23:43.440Z,11.86
2022-11-13T16:33:44.399Z,11.72
2022-11-13T16:38:43.341Z,11.65
2022-11-13T16:43:43.218Z,11.60
2022-11-13T16:48:43.160Z,11.49
2022-11-13T16:53:43.130Z,11.35
2022-11-13T16:58:43.217Z,11.09
2022-11-13T17:03:43.085Z,10.88
2022-11-13T17:08:43.049Z,10.64
2022-11-13T17:13:42.919Z,10.32
2022-11-13T17:18:42.897Z,10.20
2022-11-13T17:23:42.864Z,10.14
2022-11-13T17:28:42.811Z,9.89
2022-11-13T17:33:42.749Z,9.71
2022-11-13T17:38:42.623Z,9.61
2022-11-13T17:43:42.577Z,9.57
2022-11-13T17:48:42.489Z,9.50
2022-11-13T17:53:42.517Z,9.40
2022-11-13T17:58:42.414Z,9.18
2022-11-13T18:03:42.380Z,8.96
2022-11-13T18:08:43.528Z,9.01
2022-11-13T18:13:42.242Z,8.92
2022-11-13T18:18:42.204Z,8.89
2022-11-13T18:23:42.229Z,8.77
2022-11-13T18:28:42.104Z,8.65
2022-11-13T18:33:42.034Z,8.56
2022-11-13T18:38:41.979Z,8.40
2022-11-13T18:43:41.950Z,8.30
2022-11-13T18:48:41.999Z,8.16
2022-11-13T18:53:41.921Z,8.08
2022-11-13T18:58:41.842Z,8.01
2022-11-13T19:03:55.416Z,7.97
2022-11-13T19:08:42.659Z,7.89
2022-11-13T19:13:41.630Z,7.80
2022-11-13T19:18:41.571Z,7.64
2022-11-13T19:23:41.503Z,7.55
2022-11-13T19:28:50.263Z,7.75
2022-11-13T19:33:41.345Z,7.61
2022-11-13T19:38:41.346Z,7.52
2022-11-13T19:43:41.293Z,7.43
2022-11-13T19:48:41.218Z,7.25
2022-11-13T19:53:41.139Z,7.17
2022-11-13T19:58:41.242Z,7.12
2022-11-13T20:03:41.040Z,7.06
2022-11-13T20:08:41.061Z,7.13
2022-11-13T20:13:40.998Z,7.16
2022-11-13T20:18:40.918Z,7.09
2022-11-13T20:23:40.887Z,6.95
2022-11-13T20:28:40.795Z,6.79
2022-11-13T20:33:40.874Z,6.79
2022-11-13T20:38:40.654Z,6.67
2022-11-13T20:43:40.686Z,6.49
2022-11-13T20:48:40.543Z,6.46
2022-11-13T20:53:40.549Z,6.36
2022-11-13T20:58:40.421Z,6.46
2022-11-13T21:03:41.609Z,6.37
2022-11-13T21:08:44.558Z,6.33
2022-11-13T21:13:40.447Z,6.37
2022-11-13T21:18:40.396Z,6.25
2022-11-13T21:23:40.158Z,6.19
2022-11-13T21:28:43.528Z,6.18
2022-11-13T21:33:40.059Z,6.01
2022-11-13T21:38:40.104Z,6.08
2022-11-13T21:43:41.057Z,5.97
2022-11-13T21:48:40.231Z,5.76
2022-11-13T21:53:39.916Z,5.75
2022-11-13T21:58:39.812Z,5.76
2022-11-13T22:03:39.755Z,5.68
2022-11-13T22:08:39.699Z,5.61
2022-11-13T22:13:39.737Z,5.74
2022-11-13T22:18:39.589Z,5.63
2022-11-13T22:23:40.596Z,5.56
2022-11-13T22:28:39.459Z,5.45
2022-11-13T22:33:42.398Z,5.39
2022-11-13T22:38:40.366Z,5.27
2022-11-13T22:43:39.434Z,5.07
2022-11-13T22:48:39.368Z,4.97
2022-11-13T22:53:39.201Z,4.86
2022-11-13T22:58:39.128Z,4.89
2022-11-13T23:03:39.118Z,4.75
2022-11-13T23:08:39.095Z,4.73
2022-11-13T23:13:39.025Z,4.66
2022-11-13T23:18:39.053Z,4.67
2022-11-13T23:23:38.881Z,4.60
2022-11-13T23:28:38.795Z,4.50
2022-11-13T23:33:38.865Z,4.59
2022-11-13T23:38:38.822Z,4.52
2022-11-13T23:48:40.277Z,4.36
2022-11-13T23:53:38.526Z,4.14
2022-11-13T23:58:38.507Z,4.04
